Bennington, Kansas
Current Conditions -  °F | °C
As of 6:53 PM on Wednesday 26 Nov 2014 (Local Time) from KSLN Reporting Station
Clear Clear  
Wind Chill: 24°   Ceiling: Unl
Heat Index: 33°   Visibility: 10mi
Dew Point: 21°   Wind: 13mph
Humidity: 61%   Direction: 330°NNW
Pressure: 30.39"   Gusts: NA
Location:  39.03°N, 97.59°W
Report Text: KSLN 270053Z 33011KT 10SM CLR 01/M06 A3039 RMK AO2 SLP299 T00061061
Loading
Personal Weather Stations






























Interactive Weather Map New forecast layout! Learn more

10-Day Weather Forecast

Advertisements
Track Severe Weather on mobile